Air Navigation Services of Czech Republic
Airport: LKPR Updated:  21.01.2019 05:01:06  UTC
 METAR LKPR 21.01. 05:00 ...
METAR LKPR 210500Z 25002KT 6000 NSC M08/M09 Q1020 NOSIG RMK REG QNH 1015=
 TAF LKPR 20.01. 23:00 ...
TAF LKPR 202300Z 2100/2206 31002KT 7000 SCT030      BECMG 2101/2103 CAVOK      BECMG 2104/2106 3000 BR SCT002      TEMPO 2106/2109 0800 FZFG BKN001      BECMG 2110/2112 9000 NSC      BECMG 2120/2123 10002KT 5000 BR BKN030=